sensor_id;sensor_type;location;lat;lon;timestamp;P1;durP1;ratioP1;P2;durP2;ratioP2
4812;SDS011;2420;51.202;8.698;2023-06-24T00:00:35;8.88;;;5.18;;
4812;SDS011;2420;51.202;8.698;2023-06-24T00:03:02;6.40;;;5.50;;
4812;SDS011;2420;51.202;8.698;2023-06-24T00:05:27;6.38;;;5.30;;
4812;SDS011;2420;51.202;8.698;2023-06-24T00:07:53;5.95;;;5.20;;
4812;SDS011;2420;51.202;8.698;2023-06-24T00:10:22;9.07;;;5.40;;
4812;SDS011;2420;51.202;8.698;2023-06-24T00:12:47;6.95;;;4.93;;
4812;SDS011;2420;51.202;8.698;2023-06-24T00:15:13;6.55;;;5.28;;
4812;SDS011;2420;51.202;8.698;2023-06-24T00:17:39;5.95;;;5.22;;
4812;SDS011;2420;51.202;8.698;2023-06-24T00:20:05;7.65;;;5.70;;
4812;SDS011;2420;51.202;8.698;2023-06-24T00:22:35;6.25;;;5.30;;
4812;SDS011;2420;51.202;8.698;2023-06-24T00:25:04;6.78;;;5.60;;
4812;SDS011;2420;51.202;8.698;2023-06-24T00:27:30;9.50;;;5.47;;
4812;SDS011;2420;51.202;8.698;2023-06-24T00:29:55;6.35;;;5.68;;
4812;SDS011;2420;51.202;8.698;2023-06-24T00:32:22;7.90;;;5.75;;
4812;SDS011;2420;51.202;8.698;2023-06-24T00:34:47;5.75;;;5.15;;
4812;SDS011;2420;51.202;8.698;2023-06-24T00:37:15;6.45;;;5.18;;
4812;SDS011;2420;51.202;8.698;2023-06-24T00:39:40;6.35;;;5.28;;
4812;SDS011;2420;51.202;8.698;2023-06-24T00:42:06;8.52;;;5.65;;
4812;SDS011;2420;51.202;8.698;2023-06-24T00:44:31;5.93;;;5.28;;
4812;SDS011;2420;51.202;8.698;2023-06-24T00:46:57;6.55;;;5.00;;
4812;SDS011;2420;51.202;8.698;2023-06-24T00:49:23;6.57;;;5.70;;
4812;SDS011;2420;51.202;8.698;2023-06-24T00:51:48;6.35;;;5.00;;
4812;SDS011;2420;51.202;8.698;2023-06-24T00:54:15;7.95;;;5.47;;
4812;SDS011;2420;51.202;8.698;2023-06-24T00:56:41;6.05;;;5.18;;
4812;SDS011;2420;51.202;8.698;2023-06-24T00:59:08;6.35;;;5.35;;
4812;SDS011;2420;51.202;8.698;2023-06-24T01:01:37;6.13;;;5.40;;
4812;SDS011;2420;51.202;8.698;2023-06-24T01:04:03;6.82;;;5.70;;
4812;SDS011;2420;51.202;8.698;2023-06-24T01:06:29;6.82;;;5.50;;
4812;SDS011;2420;51.202;8.698;2023-06-24T01:08:58;6.07;;;5.47;;
4812;SDS011;2420;51.202;8.698;2023-06-24T01:11:25;6.57;;;5.18;;
4812;SDS011;2420;51.202;8.698;2023-06-24T01:13:52;6.38;;;5.30;;
4812;SDS011;2420;51.202;8.698;2023-06-24T01:16:21;6.38;;;5.22;;
4812;SDS011;2420;51.202;8.698;2023-06-24T01:18:56;6.10;;;5.45;;
4812;SDS011;2420;51.202;8.698;2023-06-24T01:30:19;7.88;;;5.32;;
4812;SDS011;2420;51.202;8.698;2023-06-24T01:33:07;5.82;;;5.10;;
4812;SDS011;2420;51.202;8.698;2023-06-24T01:35:36;6.93;;;5.35;;
4812;SDS011;2420;51.202;8.698;2023-06-24T01:38:10;7.47;;;5.35;;
4812;SDS011;2420;51.202;8.698;2023-06-24T01:40:44;8.07;;;5.35;;
4812;SDS011;2420;51.202;8.698;2023-06-24T01:43:13;6.93;;;5.60;;
4812;SDS011;2420;51.202;8.698;2023-06-24T01:45:41;7.13;;;5.65;;
4812;SDS011;2420;51.202;8.698;2023-06-24T01:50:38;8.25;;;5.93;;
4812;SDS011;2420;51.202;8.698;2023-06-24T01:53:07;7.10;;;6.00;;
4812;SDS011;2420;51.202;8.698;2023-06-24T01:55:34;9.63;;;5.95;;
4812;SDS011;2420;51.202;8.698;2023-06-24T01:58:02;8.80;;;5.45;;
4812;SDS011;2420;51.202;8.698;2023-06-24T02:00:30;5.82;;;5.20;;
4812;SDS011;2420;51.202;8.698;2023-06-24T02:02:58;6.85;;;5.50;;
4812;SDS011;2420;51.202;8.698;2023-06-24T02:05:25;7.15;;;5.88;;
4812;SDS011;2420;51.202;8.698;2023-06-24T02:07:51;6.72;;;5.78;;
4812;SDS011;2420;51.202;8.698;2023-06-24T02:10:18;6.40;;;5.57;;
4812;SDS011;2420;51.202;8.698;2023-06-24T02:12:46;6.55;;;5.63;;
4812;SDS011;2420;51.202;8.698;2023-06-24T02:15:14;8.38;;;6.05;;
4812;SDS011;2420;51.202;8.698;2023-06-24T02:17:41;10.05;;;5.55;;
4812;SDS011;2420;51.202;8.698;2023-06-24T02:20:07;7.70;;;5.78;;
4812;SDS011;2420;51.202;8.698;2023-06-24T02:22:36;7.22;;;5.63;;
4812;SDS011;2420;51.202;8.698;2023-06-24T02:25:04;9.73;;;5.75;;
4812;SDS011;2420;51.202;8.698;2023-06-24T02:27:31;8.55;;;5.90;;
4812;SDS011;2420;51.202;8.698;2023-06-24T02:29:57;9.98;;;5.97;;
4812;SDS011;2420;51.202;8.698;2023-06-24T02:32:24;6.68;;;5.70;;
4812;SDS011;2420;51.202;8.698;2023-06-24T02:34:50;7.53;;;5.78;;
4812;SDS011;2420;51.202;8.698;2023-06-24T02:37:16;9.00;;;5.50;;
4812;SDS011;2420;51.202;8.698;2023-06-24T02:39:41;7.63;;;5.63;;
4812;SDS011;2420;51.202;8.698;2023-06-24T02:42:10;6.78;;;5.25;;
4812;SDS011;2420;51.202;8.698;2023-06-24T02:44:36;8.10;;;5.53;;
4812;SDS011;2420;51.202;8.698;2023-06-24T02:47:04;8.52;;;5.47;;
4812;SDS011;2420;51.202;8.698;2023-06-24T02:49:32;7.40;;;5.38;;
4812;SDS011;2420;51.202;8.698;2023-06-24T02:52:00;7.97;;;5.75;;
4812;SDS011;2420;51.202;8.698;2023-06-24T02:54:25;6.97;;;5.53;;
4812;SDS011;2420;51.202;8.698;2023-06-24T02:56:51;7.40;;;5.68;;
4812;SDS011;2420;51.202;8.698;2023-06-24T02:59:17;6.65;;;5.30;;
4812;SDS011;2420;51.202;8.698;2023-06-24T03:01:47;6.53;;;5.55;;
4812;SDS011;2420;51.202;8.698;2023-06-24T03:04:12;7.10;;;5.65;;
4812;SDS011;2420;51.202;8.698;2023-06-24T03:06:38;7.88;;;5.63;;
4812;SDS011;2420;51.202;8.698;2023-06-24T03:09:05;8.70;;;5.57;;
4812;SDS011;2420;51.202;8.698;2023-06-24T03:11:32;8.80;;;5.95;;
4812;SDS011;2420;51.202;8.698;2023-06-24T03:14:06;7.75;;;5.80;;
4812;SDS011;2420;51.202;8.698;2023-06-24T03:16:31;7.18;;;5.40;;
4812;SDS011;2420;51.202;8.698;2023-06-24T03:18:57;9.70;;;5.90;;
4812;SDS011;2420;51.202;8.698;2023-06-24T03:21:22;8.52;;;5.82;;
4812;SDS011;2420;51.202;8.698;2023-06-24T03:23:56;8.05;;;5.47;;
4812;SDS011;2420;51.202;8.698;2023-06-24T03:26:24;6.07;;;5.35;;
4812;SDS011;2420;51.202;8.698;2023-06-24T03:28:56;7.25;;;5.72;;
4812;SDS011;2420;51.202;8.698;2023-06-24T03:31:21;7.07;;;6.10;;
4812;SDS011;2420;51.202;8.698;2023-06-24T03:33:48;6.97;;;5.75;;
4812;SDS011;2420;51.202;8.698;2023-06-24T03:36:14;5.90;;;5.20;;
4812;SDS011;2420;51.202;8.698;2023-06-24T03:38:39;6.32;;;5.57;;
4812;SDS011;2420;51.202;8.698;2023-06-24T03:41:05;7.43;;;5.63;;
4812;SDS011;2420;51.202;8.698;2023-06-24T03:43:31;6.15;;;5.28;;
4812;SDS011;2420;51.202;8.698;2023-06-24T03:45:57;6.63;;;5.47;;
4812;SDS011;2420;51.202;8.698;2023-06-24T03:48:22;8.30;;;5.72;;
4812;SDS011;2420;51.202;8.698;2023-06-24T03:50:48;7.15;;;5.80;;
4812;SDS011;2420;51.202;8.698;2023-06-24T03:53:13;6.63;;;5.63;;
4812;SDS011;2420;51.202;8.698;2023-06-24T03:55:39;8.25;;;5.82;;
4812;SDS011;2420;51.202;8.698;2023-06-24T03:58:04;6.32;;;5.53;;
4812;SDS011;2420;51.202;8.698;2023-06-24T04:00:30;7.30;;;5.70;;
4812;SDS011;2420;51.202;8.698;2023-06-24T04:02:55;5.72;;;5.13;;
4812;SDS011;2420;51.202;8.698;2023-06-24T04:05:21;7.05;;;5.63;;
4812;SDS011;2420;51.202;8.698;2023-06-24T04:07:49;7.53;;;5.70;;
4812;SDS011;2420;51.202;8.698;2023-06-24T04:10:17;7.47;;;5.55;;
4812;SDS011;2420;51.202;8.698;2023-06-24T04:12:43;7.55;;;5.82;;
4812;SDS011;2420;51.202;8.698;2023-06-24T04:15:09;10.05;;;5.80;;
4812;SDS011;2420;51.202;8.698;2023-06-24T04:17:34;7.97;;;6.28;;
4812;SDS011;2420;51.202;8.698;2023-06-24T04:20:00;7.32;;;6.00;;
4812;SDS011;2420;51.202;8.698;2023-06-24T04:22:28;7.68;;;6.32;;
4812;SDS011;2420;51.202;8.698;2023-06-24T04:24:54;7.65;;;5.97;;
4812;SDS011;2420;51.202;8.698;2023-06-24T04:27:20;8.20;;;6.32;;
4812;SDS011;2420;51.202;8.698;2023-06-24T04:29:45;7.88;;;6.10;;
4812;SDS011;2420;51.202;8.698;2023-06-24T04:32:11;6.60;;;5.72;;
4812;SDS011;2420;51.202;8.698;2023-06-24T04:34:36;8.38;;;6.80;;
4812;SDS011;2420;51.202;8.698;2023-06-24T04:37:02;9.50;;;7.88;;
4812;SDS011;2420;51.202;8.698;2023-06-24T04:39:27;8.68;;;7.45;;
4812;SDS011;2420;51.202;8.698;2023-06-24T04:41:53;8.05;;;6.90;;
4812;SDS011;2420;51.202;8.698;2023-06-24T04:44:18;9.48;;;7.45;;
4812;SDS011;2420;51.202;8.698;2023-06-24T04:46:45;8.02;;;7.18;;
4812;SDS011;2420;51.202;8.698;2023-06-24T04:49:10;9.32;;;7.40;;
4812;SDS011;2420;51.202;8.698;2023-06-24T04:51:36;9.82;;;7.75;;
4812;SDS011;2420;51.202;8.698;2023-06-24T04:54:02;8.63;;;7.00;;
4812;SDS011;2420;51.202;8.698;2023-06-24T04:56:28;9.88;;;7.15;;
4812;SDS011;2420;51.202;8.698;2023-06-24T04:58:54;8.57;;;7.32;;
4812;SDS011;2420;51.202;8.698;2023-06-24T05:01:20;7.68;;;6.90;;
4812;SDS011;2420;51.202;8.698;2023-06-24T05:03:46;8.15;;;7.05;;
4812;SDS011;2420;51.202;8.698;2023-06-24T05:06:12;8.43;;;7.18;;
4812;SDS011;2420;51.202;8.698;2023-06-24T05:08:37;7.40;;;6.60;;
4812;SDS011;2420;51.202;8.698;2023-06-24T05:11:03;8.77;;;6.80;;
4812;SDS011;2420;51.202;8.698;2023-06-24T05:13:29;9.75;;;7.03;;
4812;SDS011;2420;51.202;8.698;2023-06-24T05:15:54;11.32;;;7.30;;
4812;SDS011;2420;51.202;8.698;2023-06-24T05:18:20;9.10;;;6.93;;
4812;SDS011;2420;51.202;8.698;2023-06-24T05:20:45;8.65;;;7.30;;
4812;SDS011;2420;51.202;8.698;2023-06-24T05:23:11;7.45;;;6.63;;
4812;SDS011;2420;51.202;8.698;2023-06-24T05:25:36;8.20;;;7.00;;
4812;SDS011;2420;51.202;8.698;2023-06-24T05:28:02;8.00;;;6.63;;
4812;SDS011;2420;51.202;8.698;2023-06-24T05:30:27;8.10;;;6.50;;
4812;SDS011;2420;51.202;8.698;2023-06-24T05:32:53;9.48;;;6.57;;
4812;SDS011;2420;51.202;8.698;2023-06-24T05:35:19;8.57;;;6.97;;
4812;SDS011;2420;51.202;8.698;2023-06-24T05:37:44;7.57;;;6.78;;
4812;SDS011;2420;51.202;8.698;2023-06-24T05:40:10;9.40;;;7.03;;
4812;SDS011;2420;51.202;8.698;2023-06-24T05:42:37;8.77;;;7.22;;
4812;SDS011;2420;51.202;8.698;2023-06-24T05:45:03;7.93;;;6.57;;
4812;SDS011;2420;51.202;8.698;2023-06-24T05:47:29;8.50;;;7.10;;
4812;SDS011;2420;51.202;8.698;2023-06-24T05:49:55;8.50;;;7.32;;
4812;SDS011;2420;51.202;8.698;2023-06-24T05:52:20;8.27;;;6.70;;
4812;SDS011;2420;51.202;8.698;2023-06-24T05:54:46;9.10;;;7.40;;
4812;SDS011;2420;51.202;8.698;2023-06-24T05:57:11;9.95;;;7.25;;
4812;SDS011;2420;51.202;8.698;2023-06-24T05:59:37;10.90;;;7.47;;
4812;SDS011;2420;51.202;8.698;2023-06-24T06:02:03;10.52;;;7.38;;
4812;SDS011;2420;51.202;8.698;2023-06-24T06:04:28;8.38;;;6.65;;
4812;SDS011;2420;51.202;8.698;2023-06-24T06:06:54;9.45;;;6.60;;
4812;SDS011;2420;51.202;8.698;2023-06-24T06:09:20;7.32;;;6.47;;
4812;SDS011;2420;51.202;8.698;2023-06-24T06:11:46;8.15;;;6.38;;
4812;SDS011;2420;51.202;8.698;2023-06-24T06:14:12;7.25;;;6.55;;
4812;SDS011;2420;51.202;8.698;2023-06-24T06:16:38;9.80;;;6.43;;
4812;SDS011;2420;51.202;8.698;2023-06-24T06:19:04;8.70;;;6.32;;
4812;SDS011;2420;51.202;8.698;2023-06-24T06:21:29;6.90;;;6.20;;
4812;SDS011;2420;51.202;8.698;2023-06-24T06:23:55;10.85;;;6.75;;
4812;SDS011;2420;51.202;8.698;2023-06-24T06:26:21;8.45;;;6.63;;
4812;SDS011;2420;51.202;8.698;2023-06-24T06:28:46;8.88;;;6.75;;
4812;SDS011;2420;51.202;8.698;2023-06-24T06:31:13;7.70;;;6.50;;
4812;SDS011;2420;51.202;8.698;2023-06-24T06:33:38;8.40;;;6.70;;
4812;SDS011;2420;51.202;8.698;2023-06-24T06:36:04;8.82;;;6.45;;
4812;SDS011;2420;51.202;8.698;2023-06-24T06:38:30;8.10;;;7.10;;
4812;SDS011;2420;51.202;8.698;2023-06-24T06:40:58;8.82;;;6.43;;
4812;SDS011;2420;51.202;8.698;2023-06-24T06:43:23;8.93;;;7.07;;
4812;SDS011;2420;51.202;8.698;2023-06-24T06:45:52;7.90;;;7.07;;
4812;SDS011;2420;51.202;8.698;2023-06-24T06:48:17;7.20;;;6.50;;
4812;SDS011;2420;51.202;8.698;2023-06-24T06:50:44;8.82;;;7.25;;
4812;SDS011;2420;51.202;8.698;2023-06-24T06:53:10;8.07;;;7.00;;
4812;SDS011;2420;51.202;8.698;2023-06-24T06:55:36;7.43;;;6.50;;
4812;SDS011;2420;51.202;8.698;2023-06-24T06:58:04;7.00;;;6.28;;
4812;SDS011;2420;51.202;8.698;2023-06-24T07:00:29;8.48;;;6.80;;
4812;SDS011;2420;51.202;8.698;2023-06-24T07:02:55;6.90;;;6.15;;
4812;SDS011;2420;51.202;8.698;2023-06-24T07:05:20;7.55;;;5.93;;
4812;SDS011;2420;51.202;8.698;2023-06-24T07:07:46;8.13;;;6.45;;
4812;SDS011;2420;51.202;8.698;2023-06-24T07:10:12;6.20;;;5.55;;
4812;SDS011;2420;51.202;8.698;2023-06-24T07:12:37;6.57;;;5.70;;
4812;SDS011;2420;51.202;8.698;2023-06-24T07:15:04;6.85;;;6.15;;
4812;SDS011;2420;51.202;8.698;2023-06-24T07:17:30;7.45;;;6.65;;
4812;SDS011;2420;51.202;8.698;2023-06-24T07:19:55;7.00;;;6.30;;
4812;SDS011;2420;51.202;8.698;2023-06-24T07:22:21;7.97;;;6.82;;
4812;SDS011;2420;51.202;8.698;2023-06-24T07:24:46;9.07;;;6.90;;
4812;SDS011;2420;51.202;8.698;2023-06-24T07:27:12;7.75;;;6.75;;
4812;SDS011;2420;51.202;8.698;2023-06-24T07:29:37;8.23;;;7.00;;
4812;SDS011;2420;51.202;8.698;2023-06-24T07:32:03;8.55;;;6.72;;
4812;SDS011;2420;51.202;8.698;2023-06-24T07:34:29;7.40;;;6.65;;
4812;SDS011;2420;51.202;8.698;2023-06-24T07:36:55;10.05;;;6.45;;
4812;SDS011;2420;51.202;8.698;2023-06-24T07:39:21;7.32;;;6.38;;
4812;SDS011;2420;51.202;8.698;2023-06-24T07:41:46;7.57;;;6.32;;
4812;SDS011;2420;51.202;8.698;2023-06-24T07:44:12;6.78;;;5.75;;
4812;SDS011;2420;51.202;8.698;2023-06-24T07:46:37;10.95;;;6.68;;
4812;SDS011;2420;51.202;8.698;2023-06-24T07:49:03;8.48;;;6.20;;
4812;SDS011;2420;51.202;8.698;2023-06-24T07:51:28;8.30;;;6.38;;
4812;SDS011;2420;51.202;8.698;2023-06-24T07:53:54;7.22;;;6.32;;
4812;SDS011;2420;51.202;8.698;2023-06-24T07:56:19;7.25;;;6.00;;
4812;SDS011;2420;51.202;8.698;2023-06-24T07:58:45;7.60;;;6.60;;
4812;SDS011;2420;51.202;8.698;2023-06-24T08:01:10;7.38;;;6.05;;
4812;SDS011;2420;51.202;8.698;2023-06-24T08:03:36;7.40;;;6.55;;
4812;SDS011;2420;51.202;8.698;2023-06-24T08:06:02;10.05;;;6.35;;
4812;SDS011;2420;51.202;8.698;2023-06-24T08:08:28;7.43;;;6.07;;
4812;SDS011;2420;51.202;8.698;2023-06-24T08:10:53;8.82;;;5.80;;
4812;SDS011;2420;51.202;8.698;2023-06-24T08:13:19;8.75;;;5.85;;
4812;SDS011;2420;51.202;8.698;2023-06-24T08:15:46;6.47;;;5.85;;
4812;SDS011;2420;51.202;8.698;2023-06-24T08:18:11;7.20;;;6.50;;
4812;SDS011;2420;51.202;8.698;2023-06-24T08:20:37;6.82;;;5.75;;
4812;SDS011;2420;51.202;8.698;2023-06-24T08:23:03;7.18;;;6.47;;
4812;SDS011;2420;51.202;8.698;2023-06-24T08:25:28;6.85;;;6.13;;
4812;SDS011;2420;51.202;8.698;2023-06-24T08:27:55;6.22;;;5.63;;
4812;SDS011;2420;51.202;8.698;2023-06-24T08:30:24;6.10;;;5.32;;
4812;SDS011;2420;51.202;8.698;2023-06-24T08:32:51;6.65;;;5.43;;
4812;SDS011;2420;51.202;8.698;2023-06-24T08:35:16;7.45;;;5.32;;
4812;SDS011;2420;51.202;8.698;2023-06-24T08:37:42;5.90;;;5.30;;
4812;SDS011;2420;51.202;8.698;2023-06-24T08:40:07;6.05;;;5.45;;
4812;SDS011;2420;51.202;8.698;2023-06-24T08:42:33;6.45;;;5.80;;
4812;SDS011;2420;51.202;8.698;2023-06-24T08:44:59;6.57;;;5.97;;
4812;SDS011;2420;51.202;8.698;2023-06-24T08:47:24;6.15;;;5.55;;
4812;SDS011;2420;51.202;8.698;2023-06-24T08:49:53;5.88;;;5.13;;
4812;SDS011;2420;51.202;8.698;2023-06-24T08:52:29;5.88;;;5.30;;
4812;SDS011;2420;51.202;8.698;2023-06-24T08:54:56;6.50;;;5.70;;
4812;SDS011;2420;51.202;8.698;2023-06-24T08:57:24;6.60;;;5.90;;
4812;SDS011;2420;51.202;8.698;2023-06-24T08:59:51;7.90;;;5.45;;
4812;SDS011;2420;51.202;8.698;2023-06-24T09:02:17;8.27;;;5.70;;
4812;SDS011;2420;51.202;8.698;2023-06-24T09:04:42;7.05;;;5.88;;
4812;SDS011;2420;51.202;8.698;2023-06-24T09:07:08;7.50;;;5.55;;
4812;SDS011;2420;51.202;8.698;2023-06-24T09:09:41;7.13;;;5.93;;
4812;SDS011;2420;51.202;8.698;2023-06-24T09:12:12;7.47;;;5.85;;
4812;SDS011;2420;51.202;8.698;2023-06-24T09:14:39;6.78;;;5.68;;
4812;SDS011;2420;51.202;8.698;2023-06-24T09:17:05;7.03;;;5.60;;
4812;SDS011;2420;51.202;8.698;2023-06-24T09:19:31;5.82;;;5.13;;
4812;SDS011;2420;51.202;8.698;2023-06-24T09:22:05;5.43;;;4.88;;
4812;SDS011;2420;51.202;8.698;2023-06-24T09:24:32;6.00;;;5.40;;
4812;SDS011;2420;51.202;8.698;2023-06-24T09:26:58;6.25;;;5.22;;
4812;SDS011;2420;51.202;8.698;2023-06-24T09:29:27;6.80;;;6.00;;
4812;SDS011;2420;51.202;8.698;2023-06-24T09:31:54;6.20;;;5.60;;
4812;SDS011;2420;51.202;8.698;2023-06-24T09:34:24;7.53;;;5.68;;
4812;SDS011;2420;51.202;8.698;2023-06-24T09:36:54;6.55;;;5.43;;
4812;SDS011;2420;51.202;8.698;2023-06-24T09:39:24;8.25;;;5.75;;
4812;SDS011;2420;51.202;8.698;2023-06-24T09:41:57;7.13;;;5.60;;
4812;SDS011;2420;51.202;8.698;2023-06-24T09:44:23;7.13;;;5.70;;
4812;SDS011;2420;51.202;8.698;2023-06-24T09:46:50;7.30;;;6.10;;
4812;SDS011;2420;51.202;8.698;2023-06-24T09:49:16;6.70;;;6.03;;
4812;SDS011;2420;51.202;8.698;2023-06-24T09:51:43;6.72;;;6.03;;
4812;SDS011;2420;51.202;8.698;2023-06-24T09:54:14;6.88;;;6.18;;
4812;SDS011;2420;51.202;8.698;2023-06-24T09:56:43;7.57;;;6.18;;
4812;SDS011;2420;51.202;8.698;2023-06-24T09:59:12;7.32;;;5.95;;
4812;SDS011;2420;51.202;8.698;2023-06-24T10:01:40;8.30;;;6.03;;
4812;SDS011;2420;51.202;8.698;2023-06-24T10:04:08;7.43;;;5.95;;
4812;SDS011;2420;51.202;8.698;2023-06-24T10:06:38;6.78;;;6.00;;
4812;SDS011;2420;51.202;8.698;2023-06-24T10:09:04;6.28;;;5.50;;
4812;SDS011;2420;51.202;8.698;2023-06-24T10:11:30;5.93;;;5.30;;
4812;SDS011;2420;51.202;8.698;2023-06-24T10:13:55;6.45;;;5.43;;
4812;SDS011;2420;51.202;8.698;2023-06-24T10:16:21;8.65;;;7.07;;
4812;SDS011;2420;51.202;8.698;2023-06-24T10:18:47;7.10;;;6.10;;
4812;SDS011;2420;51.202;8.698;2023-06-24T10:21:14;6.22;;;5.60;;
4812;SDS011;2420;51.202;8.698;2023-06-24T10:23:52;6.90;;;5.53;;
4812;SDS011;2420;51.202;8.698;2023-06-24T10:26:22;5.88;;;5.28;;
4812;SDS011;2420;51.202;8.698;2023-06-24T10:29:07;5.35;;;4.85;;
4812;SDS011;2420;51.202;8.698;2023-06-24T10:36:58;6.55;;;5.47;;
4812;SDS011;2420;51.202;8.698;2023-06-24T10:44:51;6.43;;;5.40;;
4812;SDS011;2420;51.202;8.698;2023-06-24T10:47:18;7.47;;;6.00;;
4812;SDS011;2420;51.202;8.698;2023-06-24T10:49:44;6.22;;;5.63;;
4812;SDS011;2420;51.202;8.698;2023-06-24T10:52:10;12.48;;;5.53;;
4812;SDS011;2420;51.202;8.698;2023-06-24T10:54:37;7.43;;;6.15;;
4812;SDS011;2420;51.202;8.698;2023-06-24T10:57:04;6.47;;;5.25;;
4812;SDS011;2420;51.202;8.698;2023-06-24T10:59:48;6.80;;;5.38;;
4812;SDS011;2420;51.202;8.698;2023-06-24T11:02:15;9.02;;;5.72;;
4812;SDS011;2420;51.202;8.698;2023-06-24T11:04:42;7.50;;;6.03;;
4812;SDS011;2420;51.202;8.698;2023-06-24T11:07:22;6.25;;;5.63;;
4812;SDS011;2420;51.202;8.698;2023-06-24T11:09:55;6.65;;;5.97;;
4812;SDS011;2420;51.202;8.698;2023-06-24T11:12:26;6.80;;;5.97;;
4812;SDS011;2420;51.202;8.698;2023-06-24T11:14:56;7.30;;;5.80;;
4812;SDS011;2420;51.202;8.698;2023-06-24T11:17:23;6.32;;;5.72;;
4812;SDS011;2420;51.202;8.698;2023-06-24T11:19:49;8.38;;;6.47;;
4812;SDS011;2420;51.202;8.698;2023-06-24T11:22:15;5.75;;;5.15;;
4812;SDS011;2420;51.202;8.698;2023-06-24T11:24:40;7.35;;;6.45;;
4812;SDS011;2420;51.202;8.698;2023-06-24T11:27:06;6.20;;;5.30;;
4812;SDS011;2420;51.202;8.698;2023-06-24T11:29:32;5.72;;;5.10;;
4812;SDS011;2420;51.202;8.698;2023-06-24T11:32:00;5.45;;;4.93;;
4812;SDS011;2420;51.202;8.698;2023-06-24T11:34:27;6.65;;;5.20;;
4812;SDS011;2420;51.202;8.698;2023-06-24T11:36:53;5.50;;;5.00;;
4812;SDS011;2420;51.202;8.698;2023-06-24T11:39:22;5.80;;;4.95;;
4812;SDS011;2420;51.202;8.698;2023-06-24T11:41:48;6.25;;;5.43;;
4812;SDS011;2420;51.202;8.698;2023-06-24T11:44:14;6.60;;;5.13;;
4812;SDS011;2420;51.202;8.698;2023-06-24T11:46:40;6.88;;;5.50;;
4812;SDS011;2420;51.202;8.698;2023-06-24T11:49:06;5.68;;;5.18;;
4812;SDS011;2420;51.202;8.698;2023-06-24T11:51:32;6.53;;;5.53;;
4812;SDS011;2420;51.202;8.698;2023-06-24T11:54:02;6.00;;;5.22;;
4812;SDS011;2420;51.202;8.698;2023-06-24T11:56:36;5.55;;;4.95;;
4812;SDS011;2420;51.202;8.698;2023-06-24T11:59:15;6.18;;;4.80;;
4812;SDS011;2420;51.202;8.698;2023-06-24T12:01:42;5.53;;;4.90;;
4812;SDS011;2420;51.202;8.698;2023-06-24T12:04:14;5.10;;;4.60;;
4812;SDS011;2420;51.202;8.698;2023-06-24T12:06:43;5.78;;;5.28;;
4812;SDS011;2420;51.202;8.698;2023-06-24T12:09:09;4.80;;;4.30;;
4812;SDS011;2420;51.202;8.698;2023-06-24T12:11:35;5.30;;;4.80;;
4812;SDS011;2420;51.202;8.698;2023-06-24T12:14:02;5.72;;;4.95;;
4812;SDS011;2420;51.202;8.698;2023-06-24T12:16:28;6.13;;;4.93;;
4812;SDS011;2420;51.202;8.698;2023-06-24T12:18:54;6.18;;;5.32;;
4812;SDS011;2420;51.202;8.698;2023-06-24T12:21:20;5.03;;;4.45;;
4812;SDS011;2420;51.202;8.698;2023-06-24T12:23:46;5.72;;;4.60;;
4812;SDS011;2420;51.202;8.698;2023-06-24T12:26:12;5.50;;;5.00;;
4812;SDS011;2420;51.202;8.698;2023-06-24T12:28:38;6.40;;;4.70;;
4812;SDS011;2420;51.202;8.698;2023-06-24T12:31:03;5.57;;;4.55;;
4812;SDS011;2420;51.202;8.698;2023-06-24T12:33:29;7.55;;;4.60;;
4812;SDS011;2420;51.202;8.698;2023-06-24T12:35:55;6.45;;;4.35;;
4812;SDS011;2420;51.202;8.698;2023-06-24T12:38:21;5.35;;;4.25;;
4812;SDS011;2420;51.202;8.698;2023-06-24T12:40:46;4.70;;;4.30;;
4812;SDS011;2420;51.202;8.698;2023-06-24T12:43:13;5.38;;;4.75;;
4812;SDS011;2420;51.202;8.698;2023-06-24T12:45:38;5.10;;;4.60;;
4812;SDS011;2420;51.202;8.698;2023-06-24T12:48:04;4.82;;;4.32;;
4812;SDS011;2420;51.202;8.698;2023-06-24T12:50:30;5.07;;;4.57;;
4812;SDS011;2420;51.202;8.698;2023-06-24T12:52:57;7.53;;;4.60;;
4812;SDS011;2420;51.202;8.698;2023-06-24T12:55:23;5.22;;;4.72;;
4812;SDS011;2420;51.202;8.698;2023-06-24T12:57:48;5.05;;;4.47;;
4812;SDS011;2420;51.202;8.698;2023-06-24T13:00:14;4.97;;;4.00;;
4812;SDS011;2420;51.202;8.698;2023-06-24T13:02:40;5.20;;;4.13;;
4812;SDS011;2420;51.202;8.698;2023-06-24T13:05:05;6.55;;;4.90;;
4812;SDS011;2420;51.202;8.698;2023-06-24T13:07:31;5.13;;;4.53;;
4812;SDS011;2420;51.202;8.698;2023-06-24T13:09:57;4.65;;;4.20;;
4812;SDS011;2420;51.202;8.698;2023-06-24T13:12:24;5.18;;;4.68;;
4812;SDS011;2420;51.202;8.698;2023-06-24T13:14:49;4.95;;;4.20;;
4812;SDS011;2420;51.202;8.698;2023-06-24T13:17:15;6.30;;;4.82;;
4812;SDS011;2420;51.202;8.698;2023-06-24T13:19:40;5.60;;;4.70;;
4812;SDS011;2420;51.202;8.698;2023-06-24T13:22:06;5.50;;;4.63;;
4812;SDS011;2420;51.202;8.698;2023-06-24T13:24:31;4.97;;;4.47;;
4812;SDS011;2420;51.202;8.698;2023-06-24T13:26:57;6.18;;;4.65;;
4812;SDS011;2420;51.202;8.698;2023-06-24T13:29:22;5.80;;;4.78;;
4812;SDS011;2420;51.202;8.698;2023-06-24T13:31:48;6.07;;;4.78;;
4812;SDS011;2420;51.202;8.698;2023-06-24T13:34:14;5.18;;;4.68;;
4812;SDS011;2420;51.202;8.698;2023-06-24T13:36:39;4.85;;;4.43;;
4812;SDS011;2420;51.202;8.698;2023-06-24T13:39:06;4.65;;;4.18;;
4812;SDS011;2420;51.202;8.698;2023-06-24T13:41:37;6.40;;;4.75;;
4812;SDS011;2420;51.202;8.698;2023-06-24T13:44:03;5.40;;;4.90;;
4812;SDS011;2420;51.202;8.698;2023-06-24T13:46:29;5.40;;;4.90;;
4812;SDS011;2420;51.202;8.698;2023-06-24T13:48:56;5.80;;;4.90;;
4812;SDS011;2420;51.202;8.698;2023-06-24T13:51:25;5.43;;;4.53;;
4812;SDS011;2420;51.202;8.698;2023-06-24T13:53:51;5.10;;;4.57;;
4812;SDS011;2420;51.202;8.698;2023-06-24T13:56:21;5.20;;;4.57;;
4812;SDS011;2420;51.202;8.698;2023-06-24T13:58:49;5.32;;;4.35;;
4812;SDS011;2420;51.202;8.698;2023-06-24T14:01:15;4.95;;;4.45;;
4812;SDS011;2420;51.202;8.698;2023-06-24T14:03:41;5.13;;;4.63;;
4812;SDS011;2420;51.202;8.698;2023-06-24T14:06:07;5.13;;;4.63;;
4812;SDS011;2420;51.202;8.698;2023-06-24T14:08:33;7.05;;;5.03;;
4812;SDS011;2420;51.202;8.698;2023-06-24T14:10:59;6.97;;;4.82;;
4812;SDS011;2420;51.202;8.698;2023-06-24T14:13:26;5.50;;;4.90;;
4812;SDS011;2420;51.202;8.698;2023-06-24T14:15:53;5.53;;;5.03;;
4812;SDS011;2420;51.202;8.698;2023-06-24T14:18:19;5.82;;;5.03;;
4812;SDS011;2420;51.202;8.698;2023-06-24T14:20:44;4.80;;;4.40;;
4812;SDS011;2420;51.202;8.698;2023-06-24T14:23:10;5.30;;;4.70;;
4812;SDS011;2420;51.202;8.698;2023-06-24T14:25:36;5.93;;;4.90;;
4812;SDS011;2420;51.202;8.698;2023-06-24T14:28:03;5.45;;;4.95;;
4812;SDS011;2420;51.202;8.698;2023-06-24T14:30:29;6.00;;;5.10;;
4812;SDS011;2420;51.202;8.698;2023-06-24T14:32:55;5.85;;;5.25;;
4812;SDS011;2420;51.202;8.698;2023-06-24T14:35:20;7.72;;;5.00;;
4812;SDS011;2420;51.202;8.698;2023-06-24T14:37:46;5.40;;;4.90;;
4812;SDS011;2420;51.202;8.698;2023-06-24T14:40:11;5.80;;;5.22;;
4812;SDS011;2420;51.202;8.698;2023-06-24T14:42:37;6.72;;;5.72;;
4812;SDS011;2420;51.202;8.698;2023-06-24T14:45:02;6.15;;;5.50;;
4812;SDS011;2420;51.202;8.698;2023-06-24T14:47:28;5.53;;;4.90;;
4812;SDS011;2420;51.202;8.698;2023-06-24T14:49:54;7.38;;;5.40;;
4812;SDS011;2420;51.202;8.698;2023-06-24T14:52:19;5.85;;;5.05;;
4812;SDS011;2420;51.202;8.698;2023-06-24T14:54:46;6.13;;;4.95;;
4812;SDS011;2420;51.202;8.698;2023-06-24T14:57:12;7.43;;;5.32;;
4812;SDS011;2420;51.202;8.698;2023-06-24T14:59:38;5.75;;;5.18;;
4812;SDS011;2420;51.202;8.698;2023-06-24T15:02:03;5.43;;;4.93;;
4812;SDS011;2420;51.202;8.698;2023-06-24T15:04:29;5.85;;;5.35;;
4812;SDS011;2420;51.202;8.698;2023-06-24T15:06:54;5.70;;;5.13;;
4812;SDS011;2420;51.202;8.698;2023-06-24T15:09:21;5.95;;;5.10;;
4812;SDS011;2420;51.202;8.698;2023-06-24T15:11:47;5.93;;;5.07;;
4812;SDS011;2420;51.202;8.698;2023-06-24T15:14:13;5.93;;;5.05;;
4812;SDS011;2420;51.202;8.698;2023-06-24T15:16:39;5.68;;;4.70;;
4812;SDS011;2420;51.202;8.698;2023-06-24T15:19:04;5.50;;;5.00;;
4812;SDS011;2420;51.202;8.698;2023-06-24T15:21:30;5.25;;;4.75;;
4812;SDS011;2420;51.202;8.698;2023-06-24T15:23:55;6.28;;;5.47;;
4812;SDS011;2420;51.202;8.698;2023-06-24T15:26:21;5.90;;;5.20;;
4812;SDS011;2420;51.202;8.698;2023-06-24T15:28:46;6.35;;;5.57;;
4812;SDS011;2420;51.202;8.698;2023-06-24T15:31:12;5.95;;;4.95;;
4812;SDS011;2420;51.202;8.698;2023-06-24T15:33:38;6.50;;;5.15;;